createdAt,value
2022-09-02T00:02:37.045Z,99.90
2022-09-02T00:07:40.231Z,99.90
2022-09-02T00:12:44.654Z,99.90
2022-09-02T00:17:47.974Z,99.90
2022-09-02T00:22:51.051Z,99.90
2022-09-02T00:27:55.558Z,99.90
2022-09-02T00:32:59.237Z,99.90
2022-09-02T00:38:05.394Z,99.90
2022-09-02T00:43:09.874Z,99.90
2022-09-02T00:48:12.966Z,99.90
2022-09-02T00:53:16.110Z,99.90
2022-09-02T00:58:24.802Z,99.90
2022-09-02T01:03:30.839Z,99.90
2022-09-02T01:08:39.308Z,99.90
2022-09-02T01:13:43.967Z,99.90
2022-09-02T01:18:51.203Z,99.90
2022-09-02T01:23:55.972Z,99.90
2022-09-02T01:28:59.615Z,99.90
2022-09-02T01:34:03.025Z,99.90
2022-09-02T01:39:08.263Z,99.90
2022-09-02T01:44:12.328Z,99.90
2022-09-02T01:49:16.209Z,99.90
2022-09-02T01:54:22.681Z,99.90
2022-09-02T01:59:26.869Z,99.90
2022-09-02T02:04:30.357Z,99.90
2022-09-02T02:09:35.605Z,99.90
2022-09-02T02:14:39.902Z,99.90
2022-09-02T02:19:43.957Z,99.90
2022-09-02T02:24:48.759Z,99.90
2022-09-02T02:29:52.431Z,99.90
2022-09-02T02:34:58.683Z,99.90
2022-09-02T02:40:05.306Z,99.90
2022-09-02T02:45:15.111Z,99.90
2022-09-02T02:50:22.464Z,99.90
2022-09-02T02:55:27.165Z,99.90
2022-09-02T03:00:34.078Z,99.90
2022-09-02T03:05:39.984Z,99.90
2022-09-02T03:10:44.566Z,99.90
2022-09-02T03:15:48.900Z,99.90
2022-09-02T03:20:52.316Z,99.90
2022-09-02T03:25:56.943Z,99.90
2022-09-02T03:31:07.267Z,99.90
2022-09-02T03:36:19.930Z,99.90
2022-09-02T03:41:24.776Z,99.90
2022-09-02T03:46:30.749Z,99.90
2022-09-02T03:51:33.984Z,99.90
2022-09-02T03:56:38.842Z,99.90
2022-09-02T04:01:44.159Z,99.90
2022-09-02T04:06:47.680Z,99.90
2022-09-02T04:11:52.683Z,99.90
2022-09-02T04:16:56.148Z,99.90
2022-09-02T04:22:00.060Z,99.90
2022-09-02T04:27:05.055Z,99.90
2022-09-02T04:32:11.168Z,99.90
2022-09-02T04:37:15.815Z,99.90
2022-09-02T04:42:21.338Z,99.90
2022-09-02T04:47:26.640Z,99.90
2022-09-02T04:52:30.771Z,99.90
2022-09-02T04:57:36.303Z,99.90
2022-09-02T05:02:41.486Z,99.90
2022-09-02T05:07:45.422Z,99.90
2022-09-02T05:12:50.160Z,99.90
2022-09-02T05:17:54.112Z,99.90
2022-09-02T05:22:57.773Z,99.90
2022-09-02T05:28:02.708Z,99.90
2022-09-02T05:33:06.742Z,99.90
2022-09-02T05:38:10.255Z,99.90
2022-09-02T05:43:15.016Z,99.90
2022-09-02T05:48:37.648Z,99.90
2022-09-02T05:53:42.394Z,99.90
2022-09-02T05:58:47.413Z,99.90
2022-09-02T06:03:52.475Z,99.90
2022-09-02T06:08:55.785Z,99.90
2022-09-02T06:14:01.962Z,99.90
2022-09-02T06:19:05.680Z,99.90
2022-09-02T06:24:12.504Z,99.90
2022-09-02T06:29:18.342Z,99.10
2022-09-02T06:34:26.903Z,99.90
2022-09-02T06:39:31.857Z,99.90
2022-09-02T06:44:38.108Z,99.90
2022-09-02T06:49:42.121Z,99.90
2022-09-02T06:54:46.266Z,99.90
2022-09-02T06:59:53.111Z,99.90
2022-09-02T07:05:15.084Z,99.90
2022-09-02T07:10:20.365Z,99.90
2022-09-02T07:15:30.044Z,96.20
2022-09-02T07:20:33.880Z,95.20
2022-09-02T07:25:41.187Z,98.20
2022-09-02T07:30:47.809Z,98.90
2022-09-02T07:35:54.408Z,99.30
2022-09-02T07:41:00.553Z,97.90
2022-09-02T07:46:08.832Z,95.80
2022-09-02T07:51:13.183Z,89.60
2022-09-02T07:56:17.981Z,81.90
2022-09-02T08:01:23.841Z,77.70
2022-09-02T08:06:35.009Z,73.60
2022-09-02T08:11:40.326Z,73.20
2022-09-02T08:16:46.094Z,72.90
2022-09-02T08:21:49.900Z,73.60
2022-09-02T08:26:53.265Z,70.60
2022-09-02T08:31:58.045Z,70.50
2022-09-02T08:37:01.215Z,71.80
2022-09-02T08:42:12.018Z,69.60
2022-09-02T08:47:20.050Z,66.90
2022-09-02T08:52:29.978Z,70.90
2022-09-02T08:57:33.827Z,68.60
2022-09-02T09:02:56.594Z,62.90
2022-09-02T09:08:12.409Z,62.70
2022-09-02T09:13:42.444Z,63.60
2022-09-02T09:18:52.249Z,68.00
2022-09-02T09:23:56.323Z,60.60
2022-09-02T09:29:00.045Z,62.40
2022-09-02T09:34:06.841Z,62.60
2022-09-02T09:39:18.525Z,62.30
2022-09-02T09:44:49.245Z,59.00
2022-09-02T09:50:09.382Z,57.40
2022-09-02T09:55:24.678Z,62.00
2022-09-02T10:00:32.248Z,61.10
2022-09-02T10:05:38.327Z,54.30
2022-09-02T10:10:58.315Z,55.50
2022-09-02T10:16:15.251Z,57.30
2022-09-02T10:21:45.023Z,58.40
2022-09-02T10:26:51.332Z,56.70
2022-09-02T10:32:04.981Z,55.10
2022-09-02T10:37:15.397Z,53.90
2022-09-02T10:42:28.534Z,55.60
2022-09-02T10:47:36.472Z,55.20
2022-09-02T10:52:57.201Z,59.60
2022-09-02T10:58:04.086Z,61.40
2022-09-02T11:03:14.381Z,55.70
2022-09-02T11:08:31.371Z,54.50
2022-09-02T11:13:40.628Z,51.40
2022-09-02T11:18:49.571Z,51.90
2022-09-02T11:24:00.201Z,50.50
2022-09-02T11:29:10.574Z,51.90
2022-09-02T11:34:21.452Z,51.90
2022-09-02T11:39:49.510Z,56.10
2022-09-02T11:45:17.824Z,58.70
2022-09-02T11:50:38.703Z,57.10
2022-09-02T11:55:49.132Z,54.00
2022-09-02T12:01:25.639Z,57.10
2022-09-02T12:06:29.265Z,58.30
2022-09-02T12:11:51.276Z,58.20
2022-09-02T12:17:03.839Z,58.60
2022-09-02T12:22:27.355Z,58.10
2022-09-02T12:27:34.209Z,61.60
2022-09-02T12:33:12.684Z,60.30
2022-09-02T12:38:28.235Z,61.10
2022-09-02T12:43:37.048Z,62.90
2022-09-02T12:48:49.012Z,63.70
2022-09-02T12:53:52.664Z,61.70
2022-09-02T12:59:02.470Z,61.80
2022-09-02T13:04:26.447Z,62.40
2022-09-02T13:10:04.462Z,62.20
2022-09-02T13:15:27.825Z,60.80
2022-09-02T13:20:55.960Z,62.00
2022-09-02T13:26:22.831Z,60.50
2022-09-02T13:31:38.305Z,59.40
2022-09-02T13:36:43.848Z,59.00
2022-09-02T13:41:49.290Z,60.70
2022-09-02T13:46:57.168Z,60.70
2022-09-02T13:52:00.594Z,61.50
2022-09-02T13:57:07.273Z,61.40
2022-09-02T14:02:21.971Z,61.50
2022-09-02T14:07:30.167Z,56.60
2022-09-02T14:12:35.777Z,58.30
2022-09-02T14:17:40.746Z,62.30
2022-09-02T14:22:43.969Z,62.20
2022-09-02T14:27:49.498Z,59.40
2022-09-02T14:33:19.111Z,58.40
2022-09-02T14:38:24.025Z,60.50
2022-09-02T14:43:28.635Z,62.00
2022-09-02T14:48:37.757Z,63.70
2022-09-02T14:53:44.013Z,62.90
2022-09-02T14:58:49.305Z,63.70
2022-09-02T15:03:53.662Z,64.00
2022-09-02T15:08:56.733Z,64.50
2022-09-02T15:13:59.729Z,65.40
2022-09-02T15:19:04.455Z,62.20
2022-09-02T15:24:07.461Z,57.00
2022-09-02T15:29:10.455Z,57.40
2022-09-02T15:34:14.932Z,59.00
2022-09-02T15:39:19.526Z,62.20
2022-09-02T15:44:25.955Z,63.70
2022-09-02T15:49:30.888Z,61.10
2022-09-02T15:54:35.443Z,56.60
2022-09-02T15:59:38.690Z,57.20
2022-09-02T16:04:43.665Z,57.60
2022-09-02T16:09:46.558Z,59.10
2022-09-02T16:14:51.128Z,59.40
2022-09-02T16:19:55.555Z,59.80
2022-09-02T16:24:58.693Z,59.70
2022-09-02T16:30:01.926Z,61.10
2022-09-02T16:35:07.812Z,60.20
2022-09-02T16:40:11.483Z,62.40
2022-09-02T16:45:15.105Z,65.00
2022-09-02T16:50:19.965Z,64.50
2022-09-02T16:55:22.989Z,65.70
2022-09-02T17:00:26.651Z,65.50
2022-09-02T17:05:31.245Z,67.90
2022-09-02T17:10:35.425Z,70.90
2022-09-02T17:15:38.569Z,77.00
2022-09-02T17:20:42.995Z,76.60
2022-09-02T17:25:46.390Z,82.60
2022-09-02T17:30:49.671Z,80.50
2022-09-02T17:35:56.747Z,78.00
2022-09-02T17:41:18.418Z,78.50
2022-09-02T17:46:22.234Z,77.80
2022-09-02T17:51:26.852Z,77.90
2022-09-02T17:56:42.606Z,77.40
2022-09-02T18:01:58.048Z,79.90
2022-09-02T18:07:11.259Z,79.20
2022-09-02T18:12:14.327Z,80.80
2022-09-02T18:17:25.055Z,86.20
2022-09-02T18:22:53.007Z,89.30
2022-09-02T18:28:06.806Z,88.60
2022-09-02T18:33:29.825Z,89.00
2022-09-02T18:38:46.598Z,84.30
2022-09-02T18:44:09.249Z,84.00
2022-09-02T18:49:15.375Z,84.80
2022-09-02T18:54:25.404Z,90.00
2022-09-02T18:59:34.960Z,91.50
2022-09-02T19:04:37.974Z,91.50
2022-09-02T19:09:42.497Z,94.20
2022-09-02T19:14:45.565Z,94.20
2022-09-02T19:19:49.152Z,94.80
2022-09-02T19:24:58.146Z,94.00
2022-09-02T19:30:05.139Z,94.50
2022-09-02T19:35:16.298Z,96.90
2022-09-02T19:40:23.219Z,99.10
2022-09-02T19:45:29.200Z,99.90
2022-09-02T19:50:32.996Z,99.90
2022-09-02T19:55:38.010Z,99.90
2022-09-02T20:00:44.828Z,99.90
2022-09-02T20:05:49.342Z,99.90
2022-09-02T20:10:56.817Z,99.90
2022-09-02T20:16:01.370Z,99.90
2022-09-02T20:21:05.734Z,99.90
2022-09-02T20:26:23.971Z,99.90
2022-09-02T20:31:40.785Z,99.90
2022-09-02T20:36:50.116Z,99.90
2022-09-02T20:42:02.752Z,99.90
2022-09-02T20:47:23.139Z,99.90
2022-09-02T20:52:35.017Z,99.90
2022-09-02T20:58:19.496Z,99.90
2022-09-02T21:03:25.910Z,99.90
2022-09-02T21:08:33.842Z,99.90
2022-09-02T21:13:46.799Z,99.90
2022-09-02T21:19:03.342Z,99.90
2022-09-02T21:24:10.776Z,99.90
2022-09-02T21:29:20.598Z,99.90
2022-09-02T21:34:28.208Z,99.90
2022-09-02T21:39:37.065Z,99.90
2022-09-02T21:44:58.362Z,99.90
2022-09-02T21:50:16.564Z,99.90
2022-09-02T21:55:32.946Z,99.90
2022-09-02T22:00:39.236Z,99.90
2022-09-02T22:05:51.669Z,99.90
2022-09-02T22:11:06.065Z,99.90
2022-09-02T22:16:20.883Z,99.90
2022-09-02T22:21:30.810Z,99.90
2022-09-02T22:26:42.553Z,99.90
2022-09-02T22:31:50.283Z,99.90
2022-09-02T22:37:00.574Z,99.90
2022-09-02T22:42:10.100Z,99.90
2022-09-02T22:47:34.870Z,99.90
2022-09-02T22:52:47.334Z,99.90
2022-09-02T22:58:02.538Z,99.90
2022-09-02T23:03:14.193Z,99.90
2022-09-02T23:08:22.120Z,99.90
2022-09-02T23:13:37.743Z,99.90
2022-09-02T23:18:55.741Z,99.90
2022-09-02T23:24:09.430Z,99.90
2022-09-02T23:29:17.141Z,99.90
2022-09-02T23:34:31.384Z,99.90
2022-09-02T23:39:51.845Z,99.90
2022-09-02T23:45:00.470Z,99.90
2022-09-02T23:50:17.592Z,99.90
2022-09-02T23:55:30.842Z,99.90
